Crestview, Florida
Current Conditions -  °F | °C
As of 12:53 PM on Monday 20 Oct 2014 (Local Time) from KCEW Reporting Station
Clear Clear  
Wind Chill: 78°   Ceiling: Unl
Heat Index: 79°   Visibility: 10mi
Dew Point: 56°   Wind: 0mph
Humidity: 46%   Direction: NA
Pressure: 30.04"   Gusts: NA
Location:  30.76°N, 86.57°W
Report Text: KCEW 201753Z AUTO 00000KT 10SM CLR 26/13 A3004 RMK AO2 SLP171 T02560133 10256 20061 58018
Loading
Personal Weather Stations






























Interactive Weather Map
Tropical Storm Tracking
New forecast layout! Learn more

10-Day Weather Forecast

Advertisements
Track Severe Weather on mobile